Terminal Aerodrome Forecast
Issued by NWS Portland, ME

Home | Current Version | Previous Version | Text Only | Print | Product List | Glossary On
Versions: 1 2 3 4 5 6 7 8 9 10 11 12 13 14 15
000
FTUS41 KGYX 261731
TAFCON
TAF
KCON 261731Z 2618/2718 17006KT P6SM BKN050 BKN110
     FM261900 VRB03KT 4SM -RA BR OVC015
     FM270600 36005KT 5SM -SHRA BR OVC025
     FM271200 35005KT P6SM BKN030=

USA.gov is the U.S. government's official web portal to all federal, state and local government web resources and services.